Aérodrome :
LOGIN :

S'inscrire | Disclaimer

   EN    FR    IT 

 










Légende :    VFR   VFR Marginal   IFR   IFR Intensif   IFR Très Intensif
Visi : 
Plafond : 
>= 8 km
>= 3000ft
5 à 8 km
1000 à 3000 ft
1500m à 5 km
500 à 1000 ft
800 à 1500m
200 à 500 ft
< 800m
< 200 ft
Symboles :   Orages  Brouillard  Fortes neiges  Fortes précipitations  Vent > 20 kt
SIGMETs :   Divers  Orages  Givrage  Turbulence  Onde Orograph.  Cendres Volcan.







- Altitude de l'aérodrome : 85 ft
- Code IATA : SFA


DTTX - Thyna/El Maou - Sfax

DERNIER METAR :
  • 221800Z 28003KT 9999 FEW020 20/05 Q1020 NOSIG

METARs EXPIRÉS :
  • 221700Z 30010KT 9999 FEW020 22/06 Q1019 NOSIG
  • 221600Z 30013KT 9999 FEW020 23/06 Q1019 NOSIG

TAF TAF DTTX
Valide du 22 à 16h jusqu'au 23 à 01h UTC


221500Z 2216/2301 33010G20KT 9999 FEW020
BECMG 2218/2220 27008KT
Pas de NOTAMs connus pour ce terrain.
1 SIGMET publié pour la FIR Tunis (DTTC) :
 
Turbulence forte
DTTC SIGMET 05 VALID 221600/222000 DTTA
DTTC TUNIS FIR SEV TURB FCST N OF N3500 BTN SFC/FL100 STNR NC.=



MET'MAP, la Météo Aéronautique d'un coup d'oeil ! - Copyright ORBIFLY Décembre 2007 - Disclaimer

ORBIFLY MET'MAP TEAM :

Programmation & Développement : Alexandra Zaïnal
Conception & Développement : Baudouin d'Aumeries
Co-Programmation & Développement : Marc-Olivier Méhu
Soutien technique & logistique : Manuel Goepfert

Contact : metmap@orbifly.com




SOURCES & CREDITS :

   NOAA